• Join FlightAware (Why Join?)
  • Login
  • US Flag 
Rudolph Flight #1: Arrived! 
11:50PM EST


 

Airport Tracker/Info


-or-


 

Live Flight TrackerFlight Track Log ✈ SWA3494 ✈ 07-Jul-2013 ✈ KOAK - KPHX

Flight Track Log - Related Links

Times and Time Zones

All times are in EDT time to prevent confusion due to time zone crossing. See the SWA3494 flight status page for this flight to view local times or setup timezone preferences in your user account.

Time Position Orientation Groundspeed Altitude Reporting Facility
EDT Latitude Longitude Course Direction KTS MPH feet Rate Location/Type
12:56AM 37.7194 -122.2425 150° Southeast 142 163 900  Level Oakland Center
12:57AM 37.7469 -122.3011 301° West 209 241 2,200 1,260 Climbing Oakland Center
12:58AM 37.7375 -122.3719 260° West 231 266 3,500 2,160 Climbing Oakland Center
12:59AM 37.6722 -122.4131 206° Southwest 257 296 6,600 3,180 Climbing Oakland Center
01:00AM 37.6028 -122.4561 206° Southwest 273 314 10,000 2,640 Climbing Oakland Center
01:01AM 37.5167 -122.4497 177° South 335 386 12,000 2,400 Climbing Oakland Center
01:02AM 37.2687 -122.3181 150° Southeast  Level FlightAware Approximate
01:02AM 37.4439 -122.3708 139° Southeast 356 410 15,000  Level Oakland Center
01:03AM 37.3661 -122.2506 129° Southeast 371 427 18,400 2,520 Climbing Oakland Center
01:04AM 37.2964 -122.1436 129° Southeast 391 450 20,200 2,040 Climbing Oakland Center
01:06AM 37.2261 -122.0361 129° Southeast 399 459 22,600 2,220 Climbing Oakland Center
01:07AM 37.1517 -121.9247 130° Southeast 414 476 24,800 2,040 Climbing Oakland Center
01:08AM 37.0750 -121.8078 129° Southeast 432 497 26,800 1,860 Climbing Oakland Center
01:09AM 36.9958 -121.6903 130° Southeast 440 506 28,700 1,800 Climbing Oakland Center
01:10AM 36.9153 -121.5675 129° Southeast 452 520 30,500 1,860 Climbing Oakland Center
01:11AM 36.8342 -121.4444 129° Southeast 459 528 32,500 1,920 Climbing Oakland Center
01:12AM 36.7564 -121.3261 129° Southeast 457 526 34,400 1,680 Climbing Oakland Center
01:13AM 36.6769 -121.2069 130° Southeast 449 517 36,000 1,320 Climbing Oakland Center
01:14AM 36.5964 -121.0878 130° Southeast 450 518 37,200 1,080 Climbing Oakland Center
01:15AM 36.4983 -120.9456 131° Southeast 451 519 38,300 840 Climbing Oakland Center
01:16AM 36.4158 -120.8225 130° Southeast 458 527 39,000 300 Climbing Oakland Center
01:17AM 36.3336 -120.7019 130° Southeast 459 528 39,000  Level Oakland Center
01:18AM 36.2517 -120.5858 131° Southeast 448 516 39,000  Level Oakland Center
01:19AM 36.1700 -120.4678 131° Southeast 449 517 39,000  Level Oakland Center
01:20AM 36.0892 -120.3503 130° Southeast 447 514 39,000  Level Oakland Center
01:21AM 36.0078 -120.2336 131° Southeast 446 513 39,000  Level Oakland Center
01:22AM 35.9272 -120.1183 131° Southeast 442 509 39,000  Level Oakland Center
01:23AM 35.8469 -120.0025 131° Southeast 442 509 39,000  Level Oakland Center
01:24AM 35.7656 -119.8856 131° Southeast 444 511 39,000  Level Oakland Center
01:25AM 35.7050 -119.7514 119° Southeast 450 518 39,000  Level Oakland Center
01:26AM 35.6503 -119.6125 116° Southeast 450 518 39,000  Level Oakland Center
01:27AM 35.5947 -119.4744 116° Southeast 449 517 39,000  Level Oakland Center
01:28AM 35.5400 -119.3367 116° Southeast 449 517 39,000  Level Oakland Center
01:29AM 35.4853 -119.1983 116° Southeast 450 518 39,000  Level Oakland Center
01:30AM 35.4300 -119.0592 116° Southeast 453 521 39,000  Level Oakland Center
01:31AM 35.3736 -118.9211 117° Southeast 453 521 39,000  Level Oakland Center
01:32AM 35.3206 -118.7833 115° Southeast 450 518 39,000  Level Oakland Center
01:33AM 35.2644 -118.6464 117° Southeast 449 517 39,000  Level Oakland Center
01:34AM 35.2089 -118.5097 116° Southeast 450 518 39,000  Level Oakland Center
01:35AM 35.1528 -118.3717 116° Southeast 452 520 39,000  Level Oakland Center
01:36AM 35.0664 -118.1608 117° Southeast 454 522 39,000  Level Los Angeles Center
01:37AM 35.0100 -118.0250 117° Southeast 453 521 39,000  Level Los Angeles Center
01:38AM 34.9525 -117.8900 117° Southeast 455 524 39,000  Level Los Angeles Center
01:39AM 34.8944 -117.7556 118° Southeast 466 536 39,000  Level Los Angeles Center
01:40AM 34.8400 -117.6189 116° Southeast 460 529 39,000  Level Los Angeles Center
01:41AM 34.7736 -117.4583 117° Southeast 455 524 39,000  Level Los Angeles Center
01:42AM 34.7158 -117.3225 117° Southeast 462 532 39,000  Level Los Angeles Center
01:43AM 34.6597 -117.1883 117° Southeast 456 525 39,000  Level Los Angeles Center
01:44AM 34.6033 -117.0556 117° Southeast 450 518 39,000  Level Los Angeles Center
01:45AM 34.5467 -116.9197 117° Southeast 454 522 39,000  Level Los Angeles Center
01:47AM 34.4906 -116.7886 117° Southeast 446 513 39,000  Level Los Angeles Center
01:48AM 34.4342 -116.6558 117° Southeast 445 512 39,000  Level Los Angeles Center
01:49AM 34.3764 -116.5222 118° Southeast 447 514 39,000  Level Los Angeles Center
01:50AM 34.3194 -116.3861 117° Southeast 452 520 39,000  Level Los Angeles Center
01:51AM 34.2500 -116.2286 118° Southeast 445 512 39,000  Level Los Angeles Center
01:52AM 34.1911 -116.0947 118° Southeast 451 519 39,000  Level Los Angeles Center
01:53AM 34.1328 -115.9625 118° Southeast 448 516 39,000  Level Los Angeles Center
01:54AM 34.0778 -115.8375 118° Southeast 449 517 39,000  Level Los Angeles Center
01:55AM 34.0197 -115.7050 118° Southeast 446 513 39,000  Level Los Angeles Center
01:56AM 33.9722 -115.6006 119° Southeast 443 510 39,000  Level Los Angeles Center
01:57AM 33.9094 -115.4389 115° Southeast 443 510 39,000  Level Los Angeles Center
01:58AM 33.8636 -115.2953 111° Southeast 456 525 39,000  Level Los Angeles Center
01:59AM 33.8083 -115.1233 111° Southeast 458 527 39,000  Level Los Angeles Center
02:00AM 33.7603 -114.9792 112° Southeast 463 533 39,000 -540 Level Los Angeles Center
02:01AM 33.7133 -114.8356 111° Southeast 461 531 38,000 -1,860 Descending Los Angeles Center
02:02AM 33.6656 -114.6928 112° Southeast 460 529 35,300 -2,280 Descending Los Angeles Center
02:03AM 33.6181 -114.5494 112° Southeast 461 531 33,400 -2,580 Descending Los Angeles Center
02:04AM 33.5689 -114.4014 112° Southeast 474 545 30,100 -3,000 Descending Los Angeles Center
02:05AM 33.5206 -114.2572 112° Southeast 468 539 27,400 -2,460 Descending Los Angeles Center
02:06AM 33.4733 -114.1178 112° Southeast 454 522 25,100 -1,200 Descending Los Angeles Center
02:07AM 33.4417 -113.9842 106° East 423 487 25,000 -60 Descending Los Angeles Center
02:08AM 33.4156 -113.8478 103° East 419 482 25,000  Level Los Angeles Center
02:09AM 33.3881 -113.7128 104° East 418 481 25,000 -780 Level Los Angeles Center
02:10AM 33.3567 -113.5594 104° East 416 479 23,500 -1,560 Descending Los Angeles Center
02:11AM 33.3311 -113.4281 103° East 407 468 21,900 -1,440 Descending Los Angeles Center
02:12AM 33.3039 -113.3011 104° East 397 457 20,600 -1,680 Descending Los Angeles Center
02:13AM 33.2797 -113.1778 103° East 383 441 18,500 -1,800 Descending Albuquerque Center
02:14AM 33.2739 -113.0578 93° East 360 414 17,000 -840 Descending Albuquerque Center
02:15AM 33.2778 -112.9422 88° East 348 400 16,900 -600 Descending Albuquerque Center
02:16AM 33.2806 -112.8306 88° East 340 391 15,900 -1,020 Descending Albuquerque Center
02:17AM 33.2817 -112.7211 89° East 332 382 14,900 -1,440 Descending Albuquerque Center
02:18AM 33.2853 -112.6072 88° East 338 389 13,100 -1,560 Descending Albuquerque Center
02:19AM 33.2889 -112.4867 88° East 344 396 11,800 -1,080 Descending Albuquerque Center
02:20AM 33.2917 -112.3683 88° East 355 409 11,000 -720 Descending Albuquerque Center
02:21AM 33.2983 -112.2600 86° East 333 383 10,400 -600 Descending Albuquerque Center
02:22AM 33.3064 -112.1578 85° East 315 362 9,800 -960 Descending Albuquerque Center
02:23AM 33.3192 -112.0647 81° East 291 335 8,500 -1,320 Descending Albuquerque Center
02:24AM 33.3406 -111.9764 74° East 279 321 7,200 -1,320 Descending Albuquerque Center
02:25AM 33.3450 -111.8917 86° East 260 299 5,900 -1,440 Descending Albuquerque Center
02:26AM 33.3675 -111.8314 66° East 221 254 4,300 -1,440 Descending Albuquerque Center
02:27AM 33.4131 -111.8592 333° Northwest 189 217 3,100 -900 Descending Albuquerque Center
02:28AM 33.4325 -111.9089 295° West 170 196 2,500 -780 Descending Albuquerque Center
02:29AM 33.4314 -111.9611 269° West 158 182 1,600 -720 Descending Albuquerque Center
02:30AM 33.4294 -112.0264 268° West 160 184 1,100 -540 Descending Albuquerque Center